Pagrindinis puslapis
METAR-TAF:

METAR-TAF

Oro uostai :

Bender Abasas, Iranas

platuma: 27-13N, ilguma: 056-22E, Aukštis: 10 m

Dabartinis oras

Ataskaita buvo paskelbta 27 minutes, ne 13:00 UTC
Vėjas 14 kt iš Pietų/Pietvakarių
Temperatūra 26°C
Drėgmė 45%
Slėgis 1012 hPa
Matomumas: 5000 m
migla

METAR: OIKB 281300Z 20014KT 5000 HZ NSC 26/13 Q1011 A2987 NOSIG

Laikas: 16:57 (13:27 UTC)

Prognozė

Ataskaita buvo paskelbta 1 valandą ir 37 minutes, ne 11:50 UTC
Prognozė galioja nuo 28 metu 12 UTC su 29 metu 18 UTC
Vėjas 12 kt iš Pietų/Pietvakarių
Matomumas: 4000 m
migla
Tapsmas
nuo 28 metu 19 UTC su 28 metu 21 UTC
Vėjas 8 kt iš Šiaurės
Matomumas: 3000 m
migla
Laikinai
nuo 29 metu 06 UTC su 29 metu 08 UTC
Vėjas 10 kt iš Pietų/Pietvakarių
Matomumas: 5000 m
migla

TAF: OIKB 281150Z 2812/2918 20012KT 4000 HZ NSC BECMG 2819/2821 36008KT 3000 HZ TEMPO 2906/2908 5000 HZ 20010KT

Orai ataskaitas ir orų prognozės (METAR, TAF).

turimą stotys yra geltonos ir raudonos taškus žemėlapyje.

Perkelti pele per norėdami pamatyti stoties vardą.

Tada spustelėkite, norėdami matyti oro stebėjimo ir prognozės.

Norėdami pakeisti žemėlapį: spustelėkite ant žalios mygtukų su juodo kryžiaus žemyn,; žalią mygtuką su brūkšneliu, jei norite nutolinti; arba žalių rodyklių gretimoms žemėlapius.


METAR-TAF: